Stolt Effort — ZCSP6 — position and weather

sailwx.info

Track history (hours):
 
Tides and Currents Weather Stations Pressure Air Temp Water Temp Dewpoint Dewpoint Depression Visibility Wind Speed Wind Dir Waves Ship Positions

Stolt Effort

Last reported at 2015-Jan-13 17:33 UTC. Time now 2015-Jan-25 12:21 UTC.
Position N 01°54' E 102°21'.
Warning: this ship's position is 11 days out of date.

Length 176 m; draft 11.8 m.

Type: Ship (hazmat cat B). MMSI: 319445000.

Date/timePositionNaut miles runAvg speedWind from/ knotsBaromVisibWave heightAir tempDewpointWater temp
2015-Jan-13 17:33N 01°54' E 102°21'1312.6
2015-Jan-13 16:29N 01°49' E 102°33'89 2.7
2015-Jan-12 08:04N 01°13' E 103°54'714.4
2015-Jan-12 07:33N 01°16' E 104°01'7 6.7
2015-Jan-12 06:30N 01°23' E 104°01'0 0.0
2015-Jan-11 07:08N 01°23' E 104°02'6 8.9
2015-Jan-11 06:28N 01°20' E 104°07'0 0.0
2015-Jan-11 03:19N 01°20' E 104°07'0 0.0
2015-Jan-10 20:13N 01°20' E 104°07'0 0.1
2015-Jan-10 18:25N 01°20' E 104°07'0 0.0
2015-Jan-10 17:22N 01°20' E 104°07'0 0.0
2015-Jan-10 16:31N 01°20' E 104°07'1 0.1
2015-Jan-10 07:33N 01°19' E 104°07'  
2015-Jan-08 00:33N 01°14' E 104°01'17 1.8
2015-Jan-07 15:25N 01°16' E 103°44'0 0.0
2015-Jan-07 11:25N 01°16' E 103°44'0 0.0
2015-Jan-07 10:13N 01°16' E 103°44'0 0.0
2015-Jan-07 09:25N 01°16' E 103°44'0 0.0
2015-Jan-07 04:28N 01°16' E 103°44'0 0.0
2015-Jan-07 03:34N 01°16' E 103°44'0 0.0
2015-Jan-07 02:22N 01°16' E 103°44'5 0.5
2015-Jan-06 16:14N 01°14' E 103°39'0 0.0
2015-Jan-06 02:23N 01°14' E 103°39'0 0.0
2015-Jan-05 16:08N 01°14' E 103°39'0 0.0
2015-Jan-05 15:26N 01°14' E 103°39'0 0.0
2015-Jan-05 08:11N 01°14' E 103°39'0 0.0
2015-Jan-05 07:08N 01°14' E 103°39'0 0.0
2015-Jan-05 02:32N 01°14' E 103°39'4 0.4
2015-Jan-04 16:06N 01°15' E 103°43'0 0.0
2015-Jan-04 12:30N 01°15' E 103°43'0 0.0
2015-Jan-04 11:30N 01°15' E 103°43'0 0.0
2015-Jan-04 10:33N 01°15' E 103°43'0 0.0
2015-Jan-04 09:33N 01°15' E 103°43'3 2.6
2015-Jan-04 08:33N 01°18' E 103°44'0 0.0
2015-Jan-04 05:23N 01°18' E 103°44'0 0.0
2015-Jan-04 03:29N 01°18' E 103°44'0 0.0
2015-Jan-04 02:29N 01°18' E 103°44'0 0.0
2015-Jan-03 18:14N 01°18' E 103°44'  
Track history (hours):
 
Tides and Currents Weather Stations Pressure Air Temp Water Temp Dewpoint Dewpoint Depression Visibility Wind Speed Wind Dir Waves Ship Positions

Stolt Effort

Last reported at 2015-Jan-13 17:33 UTC. Time now 2015-Jan-25 12:21 UTC.
Position N 01°54' E 102°21'.
Warning: this ship's position is 11 days out of date.

Length 176 m; draft 11.8 m.

Type: Ship (hazmat cat B). MMSI: 319445000.

Date/timePositionNaut miles runAvg speedWind from/ knotsBaromVisibWave heightAir tempDewpointWater temp
2015-Jan-13 17:33N 01°54' E 102°21'1312.6
2015-Jan-13 16:29N 01°49' E 102°33'89 2.7
2015-Jan-12 08:04N 01°13' E 103°54'714.4
2015-Jan-12 07:33N 01°16' E 104°01'7 6.7
2015-Jan-12 06:30N 01°23' E 104°01'0 0.0
2015-Jan-11 07:08N 01°23' E 104°02'6 8.9
2015-Jan-11 06:28N 01°20' E 104°07'0 0.0
2015-Jan-11 03:19N 01°20' E 104°07'0 0.0
2015-Jan-10 20:13N 01°20' E 104°07'0 0.1
2015-Jan-10 18:25N 01°20' E 104°07'0 0.0
2015-Jan-10 17:22N 01°20' E 104°07'0 0.0
2015-Jan-10 16:31N 01°20' E 104°07'1 0.1
2015-Jan-10 07:33N 01°19' E 104°07'  
2015-Jan-08 00:33N 01°14' E 104°01'17 1.8
2015-Jan-07 15:25N 01°16' E 103°44'0 0.0
2015-Jan-07 11:25N 01°16' E 103°44'0 0.0
2015-Jan-07 10:13N 01°16' E 103°44'0 0.0
2015-Jan-07 09:25N 01°16' E 103°44'0 0.0
2015-Jan-07 04:28N 01°16' E 103°44'0 0.0
2015-Jan-07 03:34N 01°16' E 103°44'0 0.0
2015-Jan-07 02:22N 01°16' E 103°44'5 0.5
2015-Jan-06 16:14N 01°14' E 103°39'0 0.0
2015-Jan-06 02:23N 01°14' E 103°39'0 0.0
2015-Jan-05 16:08N 01°14' E 103°39'0 0.0
2015-Jan-05 15:26N 01°14' E 103°39'0 0.0
2015-Jan-05 08:11N 01°14' E 103°39'0 0.0
2015-Jan-05 07:08N 01°14' E 103°39'0 0.0
2015-Jan-05 02:32N 01°14' E 103°39'4 0.4
2015-Jan-04 16:06N 01°15' E 103°43'0 0.0
2015-Jan-04 12:30N 01°15' E 103°43'0 0.0
2015-Jan-04 11:30N 01°15' E 103°43'0 0.0
2015-Jan-04 10:33N 01°15' E 103°43'0 0.0
2015-Jan-04 09:33N 01°15' E 103°43'3 2.6
2015-Jan-04 08:33N 01°18' E 103°44'0 0.0
2015-Jan-04 05:23N 01°18' E 103°44'0 0.0
2015-Jan-04 03:29N 01°18' E 103°44'0 0.0
2015-Jan-04 02:29N 01°18' E 103°44'0 0.0
2015-Jan-03 18:14N 01°18' E 103°44'  

Dump ship's entire track history